الصفحة الرئيسية
METAR-TAF:

METAR-TAF

مطار :

أنجويلا, أنجويلا

دائرة عرض: 18-12-17N, خط طول: 063-03-18W, ارتفاع: 31 متر

مراقبة الطقس الحالي

تاريخ ووقت الإصدار 8ساعات و 4 دقيقة قبل الساعة 23:00UTC
ريح 9 عقدة من الشرق
درجة الحرارة 29°درجة مئوية
الرطوبة 79%
ضغط 1015 hPa
الرؤية 10 كم أو أكثر
غيوم متفرقة على ارتفاع 1800 قدم

METAR: TQPF 172300Z 10009KT 9999 SCT018 29/25 Q1015

زمن: 03:04 (07:04 UTC)

توقعات

تاريخ ووقت الإصدار 14ساعات و 4 دقيقة قبل الساعة 17:00UTC
التوقعات صالحة من17 الساعة 18 UTC إلى 18 الساعة 18 UTC
ريح 10 عقدة من الشرق/الجنوب الشرقي
الرؤية 10 كم أو أكثر
غيوم متفرقة على ارتفاع 2000 قدم

TAF: TQPF 171700Z 1718/1818 11010KT 9999 SCT020

أرصاد الطقس والتوقعات من أكثر من 4000 مطار (تقارير الطقس للمطار METAR والتنبؤ بالطقس بالمطارTAF).

المحطات المتاحة هي النقط الصفراء والحمراء على الخريطة.

حرك المؤشر فوق النقطة لمعرفة اسم المحطة.

ثم انقر لمعرفة أرصاد وتوقعات الطقس.

لتغيير الخارطة: اضغط على الأزرار الخضراء مع رمز الصليب الأسود للتكبير. على الزر الأخضر مع شرطة للتصغير، أو على الأسهم الخضراء للخرائط المجاورة.


METAR-TAF: